Time;durP1;ratioP1;P1;durP2;ratioP2;P2;SDS_P1;SDS_P2;PMS_P1;PMS_P2;Temp;Humidity;BMP_temperature;BMP_pressure;BME280_temperature;BME280_humidity;BME280_pressure;Samples;Min_cycle;Max_cycle;Signal;HPM_P1;HPM_P2
2021/09/23 04:32:22;;;;;;;6.90;5.97;;;6.60;99.90;;;;;;5273642;23;20499;-75
2021/09/23 04:34:47;;;;;;;7.97;6.87;;;6.60;99.90;;;;;;5027592;28;20479;-75
2021/09/23 04:37:13;;;;;;;7.80;6.80;;;6.60;99.90;;;;;;5027479;28;20183;-76
2021/09/23 04:39:39;;;;;;;7.73;5.97;;;6.60;99.90;;;;;;5032289;28;20180;-76
2021/09/23 04:42:04;;;;;;;6.00;5.50;;;6.60;99.90;;;;;;5029621;28;20199;-76
2021/09/23 04:44:30;;;;;;;9.00;6.10;;;6.50;99.90;;;;;;5032004;28;20197;-76
2021/09/23 04:46:56;;;;;;;7.33;6.63;;;6.50;99.90;;;;;;5029696;28;20187;-76
2021/09/23 04:49:22;;;;;;;9.13;6.03;;;6.50;99.90;;;;;;5011559;28;20180;-76
2021/09/23 04:51:48;;;;;;;9.30;6.43;;;6.50;99.90;;;;;;5015477;28;20453;-76
2021/09/23 04:54:13;;;;;;;7.93;7.00;;;6.50;99.90;;;;;;5031718;28;20839;-76
2021/09/23 04:56:39;;;;;;;10.60;6.73;;;6.60;99.90;;;;;;5032078;28;20185;-76
2021/09/23 04:59:04;;;;;;;9.53;6.93;;;6.50;99.90;;;;;;5029234;28;20195;-75
2021/09/23 05:01:30;;;;;;;8.70;6.60;;;6.50;99.90;;;;;;5031728;28;20231;-75
2021/09/23 05:03:56;;;;;;;8.83;6.30;;;6.50;99.90;;;;;;5027699;28;20198;-73
2021/09/23 05:06:22;;;;;;;9.83;6.50;;;6.50;99.90;;;;;;5029467;28;20184;-72
2021/09/23 05:08:47;;;;;;;9.20;6.33;;;6.50;99.90;;;;;;5027133;28;20445;-73
2021/09/23 05:11:13;;;;;;;10.50;6.43;;;6.60;99.90;;;;;;5031662;28;20287;-74
2021/09/23 05:13:38;;;;;;;9.40;6.10;;;6.60;99.90;;;;;;5029408;28;20214;-73
2021/09/23 05:16:04;;;;;;;9.60;6.03;;;6.60;99.90;;;;;;5028979;28;20198;-73
2021/09/23 05:18:30;;;;;;;12.77;6.50;;;6.60;99.90;;;;;;5031191;28;20777;-74
2021/09/23 05:20:56;;;;;;;7.23;6.53;;;6.60;99.90;;;;;;5025485;28;20491;-74
2021/09/23 05:23:21;;;;;;;8.20;6.40;;;6.60;99.90;;;;;;5030056;28;20185;-74
2021/09/23 05:25:47;;;;;;;8.27;6.70;;;6.60;99.90;;;;;;5025576;28;20185;-74
2021/09/23 05:28:12;;;;;;;7.20;6.47;;;6.70;99.90;;;;;;5030508;28;20188;-75
2021/09/23 05:30:39;;;;;;;9.27;5.90;;;6.70;99.90;;;;;;5029127;28;20564;-74
2021/09/23 05:33:06;;;;;;;10.67;6.93;;;6.70;99.90;;;;;;5026624;28;20281;-74
2021/09/23 05:35:32;;;;;;;7.67;6.87;;;6.80;99.90;;;;;;5026153;28;21072;-74
2021/09/23 05:37:57;;;;;;;11.40;6.63;;;6.80;99.90;;;;;;5010665;28;20477;-74
2021/09/23 05:40:23;;;;;;;9.50;7.60;;;6.80;99.90;;;;;;5031006;28;20410;-74
2021/09/23 05:42:48;;;;;;;10.53;7.10;;;6.80;99.90;;;;;;5028699;28;20214;-75
2021/09/23 05:45:14;;;;;;;7.33;6.30;;;6.90;99.90;;;;;;5031156;28;20833;-75
2021/09/23 05:47:42;;;;;;;9.03;7.00;;;7.00;99.90;;;;;;5026762;28;20667;-75
2021/09/23 05:50:10;;;;;;;8.83;6.73;;;7.20;99.90;;;;;;5031026;28;20428;-75
2021/09/23 05:52:37;;;;;;;8.30;6.37;;;7.70;99.90;;;;;;5026536;28;20802;-76
2021/09/23 05:55:04;;;;;;;7.67;6.87;;;9.00;99.90;;;;;;5030971;28;20490;-76
2021/09/23 05:57:35;;;;;;;8.47;4.93;;;10.50;99.90;;;;;;5025716;28;20432;-75
2021/09/23 06:00:06;;;;;;;6.80;5.10;;;12.10;99.90;;;;;;5025595;28;20941;-76
2021/09/23 06:02:32;;;;;;;5.50;5.00;;;13.40;99.90;;;;;;5032085;28;20519;-75
2021/09/23 06:04:57;;;;;;;6.20;4.70;;;14.70;99.90;;;;;;5034582;28;20515;-74
2021/09/23 06:07:23;;;;;;;7.57;4.60;;;15.30;99.90;;;;;;5032752;28;20194;-75
2021/09/23 06:09:49;;;;;;;7.40;4.80;;;15.80;99.90;;;;;;5030418;28;20190;-75
2021/09/23 06:12:14;;;;;;;5.07;4.57;;;16.70;99.90;;;;;;5034632;28;20219;-75
2021/09/23 06:14:40;;;;;;;6.57;4.83;;;17.30;99.90;;;;;;5032412;28;20225;-75
2021/09/23 06:17:05;;;;;;;7.60;5.40;;;17.80;99.90;;;;;;5034610;28;20530;-75
2021/09/23 06:19:31;;;;;;;6.23;5.57;;;17.90;99.90;;;;;;5032136;28;20182;-76
2021/09/23 06:21:56;;;;;;;5.63;4.50;;;18.40;99.90;;;;;;5027875;28;20221;-76
2021/09/23 06:24:22;;;;;;;12.30;6.37;;;18.90;99.90;;;;;;5033063;28;20174;-76
2021/09/23 06:26:48;;;;;;;6.60;5.53;;;19.30;99.90;;;;;;5016253;28;20654;-76
2021/09/23 06:29:13;;;;;;;8.13;4.93;;;19.70;99.90;;;;;;5034145;28;20251;-76
2021/09/23 06:31:39;;;;;;;25.83;5.60;;;20.20;99.90;;;;;;5028087;28;20208;-77
2021/09/23 06:34:04;;;;;;;8.60;5.90;;;20.10;99.90;;;;;;5028450;28;20202;-77
2021/09/23 06:36:33;;;;;;;7.40;6.20;;;20.20;99.90;;;;;;5028362;28;20242;-77
2021/09/23 06:38:59;;;;;;;9.23;6.30;;;20.60;99.90;;;;;;5033904;28;20224;-77
2021/09/23 06:41:24;;;;;;;8.00;6.33;;;21.30;99.90;;;;;;5032083;28;20460;-77
2021/09/23 06:43:51;;;;;;;8.03;6.00;;;21.40;99.90;;;;;;5029850;28;20198;-77
2021/09/23 06:46:17;;;;;;;11.70;6.80;;;21.70;99.90;;;;;;5033064;28;20200;-77
2021/09/23 06:48:42;;;;;;;13.10;6.87;;;22.30;99.90;;;;;;5033028;28;20421;-77
2021/09/23 06:51:08;;;;;;;11.30;7.43;;;22.40;99.90;;;;;;5013931;28;20483;-76
2021/09/23 06:53:34;;;;;;;8.53;7.63;;;22.90;99.90;;;;;;5014751;28;20182;-76
2021/09/23 06:55:59;;;;;;;11.47;8.40;;;23.10;99.90;;;;;;5034148;28;20193;-77
2021/09/23 06:58:25;;;;;;;9.20;8.20;;;22.50;99.90;;;;;;5031913;28;20190;-76
2021/09/23 07:00:50;;;;;;;18.37;9.00;;;22.30;99.90;;;;;;5033252;28;20200;-76
2021/09/23 07:03:16;;;;;;;10.83;8.00;;;22.50;99.90;;;;;;5031041;28;20232;-76
2021/09/23 07:05:43;;;;;;;13.93;8.10;;;22.10;99.90;;;;;;5031139;28;20190;-76
2021/09/23 07:08:10;;;;;;;9.60;8.60;;;21.70;99.90;;;;;;5029148;28;20189;-75
2021/09/23 07:10:36;;;;;;;13.43;8.73;;;21.50;99.90;;;;;;5033620;28;20428;-76
2021/09/23 07:13:01;;;;;;;9.27;8.30;;;21.10;99.90;;;;;;5033066;28;20423;-76
2021/09/23 07:15:27;;;;;;;14.17;9.10;;;20.20;99.90;;;;;;5029621;28;20289;-76
2021/09/23 07:17:53;;;;;;;14.53;8.30;;;19.40;99.90;;;;;;5033730;28;20189;-76
2021/09/23 07:20:18;;;;;;;12.50;9.00;;;19.40;99.90;;;;;;5030517;28;20449;-76
2021/09/23 07:22:44;;;;;;;8.50;7.63;;;19.30;99.90;;;;;;5031148;28;20275;-75
2021/09/23 07:25:10;;;;;;;14.23;9.90;;;19.10;99.90;;;;;;5031607;28;20538;-76
2021/09/23 07:27:35;;;;;;;10.60;8.03;;;18.90;99.90;;;;;;5030765;28;20194;-76
2021/09/23 07:30:01;;;;;;;10.47;8.10;;;18.90;99.90;;;;;;5014084;28;20178;-76
2021/09/23 07:32:26;;;;;;;10.93;7.27;;;18.90;99.90;;;;;;5027766;28;20243;-75
2021/09/23 07:34:52;;;;;;;13.60;8.10;;;19.00;99.90;;;;;;5030263;28;20206;-76
2021/09/23 07:37:17;;;;;;;12.37;8.87;;;19.30;99.90;;;;;;5023070;28;20185;-76
2021/09/23 07:39:43;;;;;;;10.07;8.70;;;18.80;99.90;;;;;;5033161;28;20170;-75
2021/09/23 07:42:09;;;;;;;12.37;8.80;;;19.10;99.90;;;;;;5030942;28;20201;-75
2021/09/23 07:44:36;;;;;;;13.07;7.90;;;19.40;99.90;;;;;;5015332;28;20421;-76
2021/09/23 07:47:02;;;;;;;14.00;7.57;;;19.60;99.90;;;;;;5031007;28;20506;-75
2021/09/23 07:49:28;;;;;;;12.03;8.17;;;20.00;99.90;;;;;;5030615;28;20447;-75
2021/09/23 07:51:53;;;;;;;13.13;8.83;;;20.50;99.90;;;;;;5030110;28;20449;-75
2021/09/23 07:54:19;;;;;;;8.20;7.00;;;20.30;99.90;;;;;;5031457;28;20554;-76
2021/09/23 07:56:45;;;;;;;9.03;8.20;;;20.10;99.90;;;;;;5032896;28;20174;-75
2021/09/23 07:59:11;;;;;;;9.40;7.70;;;20.20;99.90;;;;;;5026257;28;20194;-76
2021/09/23 08:01:37;;;;;;;14.47;7.70;;;20.50;99.90;;;;;;5014992;28;20194;-76
2021/09/23 08:04:03;;;;;;;10.40;7.80;;;20.50;99.90;;;;;;5030357;28;20937;-76
2021/09/23 08:06:28;;;;;;;13.20;8.30;;;20.70;99.90;;;;;;5030684;28;20487;-76
2021/09/23 08:08:56;;;;;;;9.10;8.20;;;21.10;99.90;;;;;;5029311;28;20323;-76
2021/09/23 08:11:22;;;;;;;12.17;7.93;;;20.80;99.90;;;;;;5030097;28;20210;-76
2021/09/23 08:13:48;;;;;;;10.23;7.77;;;20.80;99.90;;;;;;5029686;28;20940;-76
2021/09/23 08:16:14;;;;;;;9.67;6.20;;;20.80;99.90;;;;;;5031221;28;20409;-76
2021/09/23 08:18:39;;;;;;;5.83;4.63;;;21.30;99.90;;;;;;5031938;28;20178;-76
2021/09/23 08:21:05;;;;;;;7.53;6.07;;;21.30;99.90;;;;;;5027122;28;20201;-76
2021/09/23 08:23:30;;;;;;;7.90;6.27;;;21.70;99.90;;;;;;5028111;28;20182;-76
2021/09/23 08:25:56;;;;;;;10.50;5.63;;;21.90;99.90;;;;;;5029797;28;20189;-76
2021/09/23 08:28:26;;;;;;;6.03;5.53;;;22.00;99.90;;;;;;5031924;28;20228;-76
2021/09/23 08:30:51;;;;;;;8.57;5.67;;;22.40;99.90;;;;;;5030017;28;20197;-75
2021/09/23 08:33:18;;;;;;;10.17;6.67;;;22.30;99.90;;;;;;5025304;28;20448;-76
2021/09/23 08:35:44;;;;;;;13.87;6.63;;;22.40;99.90;;;;;;5029598;28;20221;-76
2021/09/23 08:38:11;;;;;;;13.30;6.10;;;22.60;99.90;;;;;;5029134;28;20473;-77
2021/09/23 08:40:37;;;;;;;4.97;4.47;;;22.80;99.90;;;;;;5031865;28;20169;-76
2021/09/23 08:43:03;;;;;;;8.40;5.50;;;22.80;99.90;;;;;;5027402;28;20446;-74
2021/09/23 08:45:28;;;;;;;8.10;5.13;;;22.60;99.90;;;;;;5031805;28;20425;-74
2021/09/23 08:47:54;;;;;;;9.57;5.10;;;22.50;99.90;;;;;;5029158;28;20200;-74
2021/09/23 08:50:21;;;;;;;7.23;4.67;;;22.70;99.90;;;;;;5031889;28;20186;-73
2021/09/23 08:52:46;;;;;;;9.93;5.67;;;22.90;99.90;;;;;;5027068;28;20467;-73
2021/09/23 08:55:26;;;;;;;8.40;5.80;;;22.30;99.90;;;;;;5031488;28;20559;-73
2021/09/23 08:57:53;;;;;;;10.17;5.90;;;22.60;99.90;;;;;;5029663;28;20265;-74
2021/09/23 09:00:21;;;;;;;4.87;4.37;;;22.60;99.90;;;;;;5031689;28;20452;-73
2021/09/23 09:03:10;;;;;;;5.60;4.90;;;22.90;99.90;;;;;;5031290;28;20519;-72
2021/09/23 09:05:39;;;;;;;7.97;4.47;;;22.80;99.90;;;;;;5022413;28;20808;-73
2021/09/23 09:08:13;;;;;;;6.33;4.20;;;23.40;99.90;;;;;;5028805;28;20443;-73
2021/09/23 09:10:39;;;;;;;7.10;4.27;;;23.70;99.90;;;;;;5012593;28;20996;-75
2021/09/23 09:13:06;;;;;;;6.40;4.17;;;24.10;99.90;;;;;;5031465;28;20500;-74
2021/09/23 09:15:45;;;;;;;10.93;4.57;;;23.70;99.90;;;;;;5026647;28;20214;-74
2021/09/23 09:18:22;;;;;;;5.40;3.80;;;23.90;99.90;;;;;;5031280;28;20905;-74
2021/09/23 09:20:55;;;;;;;7.23;4.10;;;24.20;99.90;;;;;;5027022;28;21025;-74
2021/09/23 09:23:22;;;;;;;4.57;4.17;;;23.80;99.90;;;;;;5029664;28;20455;-73
2021/09/23 09:25:47;;;;;;;8.20;5.30;;;24.00;99.90;;;;;;5029373;28;20438;-74
2021/09/23 09:28:16;;;;;;;5.20;4.67;;;24.30;99.90;;;;;;5028982;28;20448;-74
2021/09/23 09:30:43;;;;;;;12.73;4.57;;;24.40;99.90;;;;;;5028971;28;20215;-74
2021/09/23 09:33:09;;;;;;;7.93;4.87;;;24.50;99.90;;;;;;5028541;28;20533;-73
2021/09/23 09:35:34;;;;;;;5.63;4.70;;;24.50;99.90;;;;;;5030280;28;20563;-73
2021/09/23 09:38:05;;;;;;;8.27;4.37;;;24.60;99.90;;;;;;5030184;28;20676;-73
2021/09/23 09:40:34;;;;;;;5.93;3.47;;;24.70;99.90;;;;;;5035202;28;20227;-74
2021/09/23 09:43:06;;;;;;;9.80;4.57;;;24.60;99.90;;;;;;5016344;28;20432;-74
2021/09/23 09:45:32;;;;;;;9.37;4.90;;;25.00;99.90;;;;;;5035428;28;20431;-76
2021/09/23 09:47:59;;;;;;;9.40;4.60;;;25.20;99.90;;;;;;5032394;28;20432;-73
2021/09/23 09:50:31;;;;;;;6.70;4.57;;;25.20;99.90;;;;;;5032486;28;20421;-75
2021/09/23 09:53:01;;;;;;;8.90;5.10;;;24.80;99.90;;;;;;5030816;28;20516;-74
2021/09/23 09:55:36;;;;;;;12.67;4.53;;;24.90;99.90;;;;;;5035095;28;20463;-76
2021/09/23 09:58:03;;;;;;;17.23;4.60;;;24.90;99.90;;;;;;5033972;28;20466;-76
2021/09/23 10:00:31;;;;;;;6.10;4.23;;;25.00;99.90;;;;;;5032774;28;20979;-74
2021/09/23 10:02:56;;;;;;;4.87;3.87;;;25.10;99.90;;;;;;5034904;28;20412;-76
2021/09/23 10:05:23;;;;;;;10.50;3.33;;;25.20;99.90;;;;;;5034521;28;20959;-74
2021/09/23 10:07:54;;;;;;;8.13;3.77;;;25.50;99.90;;;;;;5032501;28;20682;-75
2021/09/23 10:10:24;;;;;;;5.27;3.37;;;26.00;99.90;;;;;;5030958;28;20444;-75
2021/09/23 10:12:53;;;;;;;4.77;3.47;;;25.80;99.90;;;;;;5034588;28;20431;-75
2021/09/23 10:15:18;;;;;;;4.43;2.70;;;25.40;99.90;;;;;;5032405;28;20550;-75
2021/09/23 10:17:50;;;;;;;3.97;2.40;;;25.80;99.90;;;;;;5035106;28;20945;-75
2021/09/23 10:20:18;;;;;;;3.23;2.77;;;26.00;99.90;;;;;;5032577;28;20562;-75
2021/09/23 10:22:45;;;;;;;3.13;2.70;;;26.20;99.90;;;;;;5027687;28;20459;-75
2021/09/23 10:25:14;;;;;;;2.60;2.30;;;26.40;99.90;;;;;;5017145;28;21008;-75
2021/09/23 10:30:35;;;;;;;3.80;2.57;;;26.90;99.90;;;;;;5034479;28;20416;-76
2021/09/23 10:33:03;;;;;;;3.20;1.97;;;26.90;99.90;;;;;;5025441;28;20823;-75
2021/09/23 10:35:29;;;;;;;2.30;1.83;;;26.90;99.90;;;;;;5015258;28;20945;-75
2021/09/23 10:37:58;;;;;;;2.00;1.83;;;27.10;99.90;;;;;;5031722;28;20439;-76
2021/09/23 10:40:25;;;;;;;5.37;2.43;;;27.10;99.90;;;;;;5016531;28;20503;-76
2021/09/23 10:42:55;;;;;;;2.93;1.83;;;27.10;99.90;;;;;;5030619;28;20463;-76
2021/09/23 10:45:27;;;;;;;4.67;2.27;;;27.30;99.90;;;;;;5034291;28;20835;-76
2021/09/23 10:47:54;;;;;;;2.30;1.97;;;27.40;99.90;;;;;;5030757;28;20933;-77
2021/09/23 10:50:25;;;;;;;2.10;1.50;;;27.30;99.90;;;;;;5033954;28;20926;-77
2021/09/23 10:52:51;;;;;;;1.77;1.67;;;27.30;99.90;;;;;;5029237;28;20489;-76
2021/09/23 10:55:18;;;;;;;1.87;1.77;;;27.20;99.90;;;;;;5034031;28;20499;-76
2021/09/23 10:57:45;;;;;;;2.03;1.60;;;27.10;99.90;;;;;;5015907;28;20548;-76
2021/09/23 11:00:11;;;;;;;2.97;2.13;;;27.00;99.90;;;;;;5031603;28;20444;-77
2021/09/23 11:02:37;;;;;;;1.33;1.27;;;26.90;99.90;;;;;;5033602;28;20851;-76
2021/09/23 11:05:11;;;;;;;2.30;1.57;;;26.80;99.90;;;;;;5029390;28;20535;-76
2021/09/23 11:07:41;;;;;;;1.50;1.40;;;27.00;99.90;;;;;;5031398;28;20213;-76
2021/09/23 11:10:25;;;;;;;1.70;1.60;;;27.10;99.90;;;;;;5014734;28;20436;-76
2021/09/23 11:12:56;;;;;;;1.53;1.43;;;27.20;99.90;;;;;;5033475;28;20425;-77
2021/09/23 11:15:26;;;;;;;2.17;1.97;;;27.20;99.90;;;;;;5031219;28;20846;-78
2021/09/23 11:17:54;;;;;;;3.73;2.03;;;27.20;99.90;;;;;;5030801;28;20499;-76
2021/09/23 11:20:23;;;;;;;1.60;1.50;;;27.30;99.90;;;;;;5031239;28;20425;-77
2021/09/23 11:22:53;;;;;;;2.30;1.90;;;27.30;99.90;;;;;;5026568;28;20861;-76
2021/09/23 11:25:27;;;;;;;1.60;1.50;;;27.00;99.90;;;;;;5013683;28;20428;-76
2021/09/23 11:27:54;;;;;;;2.67;2.00;;;26.70;99.90;;;;;;5031188;28;20490;-77
2021/09/23 11:30:27;;;;;;;1.93;1.80;;;26.50;99.90;;;;;;5033333;28;20424;-75
2021/09/23 11:33:05;;;;;;;2.00;1.90;;;26.60;99.90;;;;;;5026890;28;20461;-75
2021/09/23 11:35:35;;;;;;;2.33;1.73;;;26.30;99.90;;;;;;5031271;28;20522;-75
2021/09/23 11:38:01;;;;;;;3.20;2.40;;;26.10;99.90;;;;;;5027282;28;20444;-75
2021/09/23 11:40:36;;;;;;;3.13;1.73;;;26.10;99.90;;;;;;5015291;28;20409;-76
2021/09/23 11:43:03;;;;;;;1.67;1.40;;;26.00;99.90;;;;;;5030691;28;20436;-75
2021/09/23 11:45:33;;;;;;;1.80;1.70;;;26.00;99.90;;;;;;5033095;28;20412;-74
2021/09/23 11:48:03;;;;;;;2.70;1.87;;;26.20;99.90;;;;;;5030755;28;20515;-74
2021/09/23 11:50:38;;;;;;;1.77;1.63;;;26.30;99.90;;;;;;5028309;28;20433;-72
2021/09/23 11:53:09;;;;;;;3.70;2.00;;;26.40;99.90;;;;;;5028557;28;20435;-75
2021/09/23 11:55:42;;;;;;;1.73;1.57;;;26.10;99.90;;;;;;5032847;28;20465;-75
2021/09/23 11:58:14;;;;;;;1.97;1.87;;;26.10;99.90;;;;;;5030682;28;20796;-75
2021/09/23 12:00:41;;;;;;;5.17;2.23;;;26.20;99.90;;;;;;5031596;28;20428;-74
2021/09/23 12:03:07;;;;;;;1.40;1.30;;;26.10;99.90;;;;;;5032546;28;20416;-77
2021/09/23 12:05:33;;;;;;;1.97;1.83;;;25.80;99.90;;;;;;5013717;28;20471;-74
2021/09/23 12:08:13;;;;;;;1.93;1.73;;;25.80;99.90;;;;;;5030179;28;20464;-75
2021/09/23 12:10:51;;;;;;;2.40;1.90;;;25.70;99.90;;;;;;5028170;28;20193;-75
2021/09/23 12:13:24;;;;;;;2.33;2.13;;;25.70;99.90;;;;;;5032733;28;20565;-75
2021/09/23 12:15:52;;;;;;;1.87;1.77;;;25.70;99.90;;;;;;5030852;28;20480;-75
2021/09/23 12:18:18;;;;;;;3.23;2.47;;;25.70;99.90;;;;;;5032322;28;20852;-75
2021/09/23 12:20:46;;;;;;;3.07;2.17;;;25.60;99.90;;;;;;5028841;28;20486;-75
2021/09/23 12:23:32;;;;;;;2.10;2.00;;;25.50;99.90;;;;;;5025339;28;20193;-77
2021/09/23 12:26:22;;;;;;;2.60;1.87;;;25.60;99.90;;;;;;5030181;28;20524;-74
2021/09/23 12:28:58;;;;;;;2.27;2.07;;;25.60;99.90;;;;;;5032091;28;20436;-75
2021/09/23 12:31:44;;;;;;;1.93;1.83;;;25.50;99.90;;;;;;5032541;28;21063;-75
2021/09/23 12:34:18;;;;;;;2.13;1.87;;;25.40;99.90;;;;;;5029810;28;20516;-75
2021/09/23 12:36:46;;;;;;;2.40;2.20;;;25.20;99.90;;;;;;5029845;28;21032;-75
2021/09/23 12:39:19;;;;;;;2.70;1.70;;;25.10;99.90;;;;;;5030047;28;20452;-74
2021/09/23 12:41:51;;;;;;;3.70;1.87;;;25.10;99.90;;;;;;5029690;28;20511;-75
2021/09/23 12:44:26;;;;;;;5.20;2.03;;;25.00;99.90;;;;;;5029570;28;20442;-75
2021/09/23 12:47:08;;;;;;;1.90;1.77;;;24.80;99.90;;;;;;5030951;28;20416;-75
2021/09/23 12:49:34;;;;;;;2.80;2.20;;;24.50;99.90;;;;;;5028511;28;20495;-74
2021/09/23 12:52:32;;;;;;;2.60;1.57;;;24.70;99.90;;;;;;5030462;28;20441;-75
2021/09/23 12:55:12;;;;;;;3.67;2.00;;;24.60;99.90;;;;;;4995967;28;20226;-75
2021/09/23 12:57:44;;;;;;;3.00;2.10;;;24.60;99.90;;;;;;5011890;28;20445;-75
2021/09/23 13:00:11;;;;;;;2.80;2.00;;;24.60;99.90;;;;;;5029594;28;20429;-75
2021/09/23 13:02:38;;;;;;;2.03;1.93;;;24.70;99.90;;;;;;5031508;28;20428;-74
2021/09/23 13:05:10;;;;;;;9.00;2.10;;;24.60;99.90;;;;;;5027407;28;20857;-75
2021/09/23 13:07:46;;;;;;;2.43;2.23;;;24.50;99.90;;;;;;5012733;28;21048;-75
2021/09/23 13:10:28;;;;;;;5.60;2.03;;;24.30;99.90;;;;;;4995615;28;20436;-75
2021/09/23 13:12:57;;;;;;;4.83;2.47;;;24.20;99.90;;;;;;5031735;28;20460;-75
2021/09/23 13:15:40;;;;;;;4.23;2.63;;;24.10;99.90;;;;;;5028351;28;20559;-75
2021/09/23 13:18:14;;;;;;;3.90;2.07;;;24.00;99.90;;;;;;5030912;28;20408;-74
2021/09/23 13:20:46;;;;;;;2.60;2.03;;;24.00;99.90;;;;;;5029498;28;20478;-74
2021/09/23 13:23:17;;;;;;;3.03;2.70;;;23.90;99.90;;;;;;5029338;28;20425;-74
2021/09/23 13:25:44;;;;;;;2.90;2.53;;;23.90;99.90;;;;;;5032387;28;20444;-74
2021/09/23 13:28:27;;;;;;;4.67;2.53;;;23.80;99.90;;;;;;5028911;28;20440;-76
2021/09/23 13:30:54;;;;;;;2.83;2.10;;;23.80;99.90;;;;;;5028718;28;20457;-76
2021/09/23 13:33:20;;;;;;;2.90;2.70;;;23.70;99.90;;;;;;5030831;28;20432;-76
2021/09/23 13:35:49;;;;;;;3.03;2.20;;;23.60;99.90;;;;;;5031140;28;20969;-76
2021/09/23 13:38:15;;;;;;;2.90;2.70;;;23.70;99.90;;;;;;5024440;28;20952;-75
2021/09/23 13:40:40;;;;;;;2.57;2.40;;;23.50;99.90;;;;;;5014046;28;20997;-76
2021/09/23 13:43:08;;;;;;;2.30;2.10;;;23.60;99.90;;;;;;5029161;28;20563;-76
2021/09/23 13:45:33;;;;;;;4.77;2.40;;;23.60;99.90;;;;;;5013452;28;20213;-76
2021/09/23 13:47:59;;;;;;;6.60;3.17;;;23.60;99.90;;;;;;5028066;28;20866;-77
2021/09/23 13:50:24;;;;;;;3.93;2.90;;;23.50;99.90;;;;;;5009418;28;20193;-77
2021/09/23 13:52:50;;;;;;;3.60;2.80;;;23.60;99.90;;;;;;5028808;28;20202;-76
2021/09/23 13:55:16;;;;;;;2.93;2.70;;;23.50;99.90;;;;;;5031050;28;20608;-76
2021/09/23 13:57:41;;;;;;;3.33;2.90;;;23.40;99.90;;;;;;5030135;28;20174;-76
2021/09/23 14:00:11;;;;;;;3.93;3.40;;;23.50;99.90;;;;;;5026322;28;20193;-76
2021/09/23 14:02:36;;;;;;;5.47;2.73;;;23.40;99.90;;;;;;5031029;28;20197;-76
2021/09/23 14:05:03;;;;;;;6.13;2.67;;;23.40;99.90;;;;;;5029155;28;20436;-76
2021/09/23 14:07:29;;;;;;;2.90;2.60;;;23.30;99.90;;;;;;5028738;28;20175;-76
2021/09/23 14:09:54;;;;;;;9.53;2.97;;;23.20;99.90;;;;;;5011125;28;20524;-76
2021/09/23 14:12:19;;;;;;;4.60;3.10;;;23.20;99.90;;;;;;5029163;28;20201;-77
2021/09/23 14:14:45;;;;;;;3.07;2.73;;;23.20;99.90;;;;;;5026925;28;20202;-76
2021/09/23 14:17:11;;;;;;;4.57;2.47;;;23.00;99.90;;;;;;5011588;28;20174;-76
2021/09/23 14:19:37;;;;;;;5.00;2.90;;;22.90;99.90;;;;;;5027371;28;20193;-76
2021/09/23 14:22:04;;;;;;;5.43;3.00;;;22.80;99.90;;;;;;5027723;28;20205;-76
2021/09/23 14:24:30;;;;;;;6.00;2.57;;;22.80;99.90;;;;;;5028693;28;20788;-76
2021/09/23 14:26:56;;;;;;;4.93;3.10;;;22.70;99.90;;;;;;5032294;28;20485;-76
2021/09/23 14:29:21;;;;;;;3.30;2.67;;;22.70;99.90;;;;;;5033313;28;20909;-78
2021/09/23 14:31:47;;;;;;;6.03;3.33;;;22.70;99.90;;;;;;5029838;28;20687;-76
2021/09/23 14:34:13;;;;;;;2.37;2.17;;;22.70;99.90;;;;;;5016455;28;20284;-78
2021/09/23 14:36:38;;;;;;;2.90;2.80;;;22.60;99.90;;;;;;5029165;28;20472;-76
2021/09/23 14:39:05;;;;;;;3.43;2.50;;;22.50;99.90;;;;;;5018234;28;20182;-75
2021/09/23 14:41:31;;;;;;;3.77;2.80;;;22.50;99.90;;;;;;4997933;28;20281;-76
2021/09/23 14:43:58;;;;;;;2.83;1.97;;;22.50;99.90;;;;;;5014985;28;20432;-77
2021/09/23 14:46:23;;;;;;;3.10;2.13;;;22.60;99.90;;;;;;5033619;28;20413;-78
2021/09/23 14:48:49;;;;;;;2.30;2.10;;;22.50;99.90;;;;;;5025013;28;20460;-77
2021/09/23 14:51:15;;;;;;;5.17;2.70;;;22.50;99.90;;;;;;5034133;28;20581;-77
2021/09/23 14:53:41;;;;;;;1.80;1.70;;;22.60;99.90;;;;;;5028798;28;20174;-76
2021/09/23 14:56:07;;;;;;;2.10;2.00;;;22.40;99.90;;;;;;5016356;28;20417;-77
2021/09/23 14:58:32;;;;;;;1.83;1.43;;;22.40;99.90;;;;;;5031177;28;20635;-77
2021/09/23 15:00:58;;;;;;;2.93;2.70;;;22.30;99.90;;;;;;5033865;28;20201;-77
2021/09/23 15:03:24;;;;;;;4.10;2.20;;;22.40;99.90;;;;;;5031599;28;20178;-77
2021/09/23 15:05:53;;;;;;;2.10;1.90;;;22.30;99.90;;;;;;5031552;28;20264;-77
2021/09/23 15:08:19;;;;;;;1.93;1.83;;;22.30;99.90;;;;;;5030921;28;20273;-77
2021/09/23 15:10:44;;;;;;;3.30;2.50;;;22.20;99.90;;;;;;5015145;28;20527;-77
2021/09/23 15:13:11;;;;;;;3.23;2.27;;;22.10;99.90;;;;;;5033532;28;20228;-77
2021/09/23 15:15:37;;;;;;;5.10;2.10;;;22.20;99.90;;;;;;5029023;28;20300;-76
2021/09/23 15:18:03;;;;;;;2.13;2.03;;;22.10;99.90;;;;;;5034112;28;20492;-77
2021/09/23 15:20:29;;;;;;;2.30;2.03;;;22.10;99.90;;;;;;5030675;28;20443;-76
2021/09/23 15:22:55;;;;;;;7.10;2.40;;;22.20;99.90;;;;;;5031286;28;20437;-76
2021/09/23 15:25:21;;;;;;;5.83;1.60;;;22.20;99.90;;;;;;5031459;28;20486;-76
2021/09/23 15:27:47;;;;;;;2.00;1.90;;;22.10;99.90;;;;;;5014848;28;20189;-77
2021/09/23 15:30:14;;;;;;;3.13;1.80;;;22.00;99.90;;;;;;5014325;28;20178;-75
2021/09/23 15:32:40;;;;;;;2.30;2.10;;;22.00;99.90;;;;;;5032072;28;20533;-77
2021/09/23 15:35:07;;;;;;;5.93;1.73;;;21.90;99.90;;;;;;5033280;28;20456;-76
2021/09/23 15:37:33;;;;;;;2.07;1.90;;;21.90;99.90;;;;;;5024224;28;20433;-77
2021/09/23 15:39:59;;;;;;;2.60;1.67;;;21.90;99.90;;;;;;5015115;28;20421;-77
2021/09/23 15:42:24;;;;;;;5.60;1.90;;;21.80;99.70;;;;;;5030996;28;20468;-77
2021/09/23 15:44:50;;;;;;;2.00;1.90;;;21.80;99.90;;;;;;5033212;28;20201;-77
2021/09/23 15:47:16;;;;;;;1.67;1.57;;;21.70;99.90;;;;;;5029162;28;20182;-77
2021/09/23 15:49:42;;;;;;;1.77;1.67;;;21.70;99.90;;;;;;5028593;28;20193;-77
2021/09/23 15:52:08;;;;;;;2.97;2.10;;;21.70;99.90;;;;;;5033101;28;20240;-77
2021/09/23 15:54:34;;;;;;;4.07;1.90;;;21.60;99.90;;;;;;5029378;28;20502;-77
2021/09/23 15:57:00;;;;;;;2.33;2.13;;;21.50;99.90;;;;;;5032917;28;20409;-77
2021/09/23 15:59:26;;;;;;;2.57;2.37;;;21.40;99.90;;;;;;5028033;28;20456;-78
2021/09/23 16:01:51;;;;;;;1.93;1.83;;;21.40;99.90;;;;;;5032834;28;20811;-76
2021/09/23 16:04:17;;;;;;;2.47;2.27;;;21.40;99.90;;;;;;5030895;28;20194;-76
2021/09/23 16:06:43;;;;;;;2.37;2.27;;;21.30;99.90;;;;;;5032564;28;20178;-77
2021/09/23 16:09:08;;;;;;;2.10;2.00;;;21.20;99.90;;;;;;5025937;28;20663;-77
2021/09/23 16:11:34;;;;;;;1.60;1.50;;;21.20;99.90;;;;;;5032389;28;20197;-77
2021/09/23 16:14:01;;;;;;;6.43;5.40;;;21.10;99.90;;;;;;5031947;28;20836;-77
2021/09/23 16:16:26;;;;;;;3.90;3.50;;;21.10;99.90;;;;;;5029747;28;20797;-78
2021/09/23 16:18:52;;;;;;;2.33;2.00;;;21.00;99.90;;;;;;5032503;28;20417;-76
2021/09/23 16:21:21;;;;;;;2.47;2.27;;;20.90;99.90;;;;;;5026245;28;20211;-76
2021/09/23 16:23:47;;;;;;;3.63;2.30;;;20.80;99.90;;;;;;5023432;28;20206;-77
2021/09/23 16:26:14;;;;;;;2.07;1.97;;;20.80;99.90;;;;;;5030159;28;20464;-76
2021/09/23 16:28:39;;;;;;;2.37;2.23;;;20.70;99.90;;;;;;5031752;28;20269;-76
2021/09/23 16:31:05;;;;;;;3.03;2.00;;;20.60;99.90;;;;;;5030083;28;21035;-76
2021/09/23 16:33:30;;;;;;;2.53;2.20;;;20.60;99.90;;;;;;5029758;28;20186;-76
2021/09/23 16:35:56;;;;;;;1.90;1.80;;;20.50;99.90;;;;;;5031534;28;20206;-76
2021/09/23 16:38:21;;;;;;;2.13;1.77;;;20.40;99.90;;;;;;5025552;28;20701;-76
2021/09/23 16:40:47;;;;;;;3.80;3.37;;;20.30;99.90;;;;;;5031933;28;20181;-76
2021/09/23 16:43:13;;;;;;;4.37;3.03;;;20.20;99.90;;;;;;5027726;28;20256;-76
2021/09/23 16:45:39;;;;;;;2.30;2.10;;;20.10;99.90;;;;;;5031220;28;20267;-76
2021/09/23 16:48:05;;;;;;;2.40;2.03;;;20.00;99.90;;;;;;5028048;28;20193;-77
2021/09/23 16:50:31;;;;;;;6.20;2.47;;;19.90;99.90;;;;;;5012706;28;20437;-73
2021/09/23 16:52:57;;;;;;;4.47;3.20;;;19.80;99.90;;;;;;5028512;28;20436;-76
2021/09/23 16:55:22;;;;;;;2.17;1.97;;;19.70;99.90;;;;;;5029547;28;20292;-76
2021/09/23 16:57:48;;;;;;;2.93;1.87;;;19.60;99.90;;;;;;5013592;28;21041;-76
2021/09/23 17:00:15;;;;;;;4.33;2.43;;;19.40;99.90;;;;;;5028957;28;20599;-76
2021/09/23 17:02:41;;;;;;;3.40;1.90;;;19.30;99.90;;;;;;5013875;28;20194;-75
2021/09/23 17:05:08;;;;;;;2.67;2.43;;;19.10;99.90;;;;;;5027362;28;20432;-75
2021/09/23 17:07:33;;;;;;;1.90;1.80;;;19.00;99.90;;;;;;5029500;28;20245;-75
2021/09/23 17:09:59;;;;;;;3.00;2.27;;;18.90;99.90;;;;;;5029100;28;20535;-76
2021/09/23 17:12:24;;;;;;;2.50;2.30;;;18.70;99.90;;;;;;5031377;28;20216;-75
2021/09/23 17:14:50;;;;;;;3.10;2.80;;;18.50;99.90;;;;;;5029330;28;20567;-76
2021/09/23 17:17:16;;;;;;;5.83;2.77;;;18.30;99.90;;;;;;5029443;28;20193;-76
2021/09/23 17:19:42;;;;;;;4.20;3.40;;;18.20;99.90;;;;;;5030038;28;20409;-74
2021/09/23 17:22:08;;;;;;;9.30;3.00;;;18.10;99.90;;;;;;5030286;28;20471;-75